createdAt,value
2018-03-18T00:00:07.609Z,66.64
2018-03-18T00:02:39.792Z,66.91
2018-03-18T00:05:09.039Z,66.91
2018-03-18T00:07:37.806Z,66.48
2018-03-18T00:10:07.253Z,66.54
2018-03-18T00:12:39.063Z,66.44
2018-03-18T00:15:07.487Z,67.06
2018-03-18T00:17:36.795Z,67.48
2018-03-18T00:20:06.294Z,66.96
2018-03-18T00:22:36.207Z,66.55
2018-03-18T00:25:05.501Z,66.27
2018-03-18T00:27:33.924Z,66.20
2018-03-18T00:30:02.310Z,66.28
2018-03-18T00:32:30.741Z,66.42
2018-03-18T00:34:59.890Z,65.66
2018-03-18T00:37:28.311Z,66.37
2018-03-18T00:39:58.355Z,65.73
2018-03-18T00:42:28.092Z,65.86
2018-03-18T00:44:57.321Z,65.55
2018-03-18T00:47:25.912Z,65.94
2018-03-18T00:49:54.370Z,65.37
2018-03-18T00:52:23.615Z,66.04
2018-03-18T00:54:53.016Z,66.03
2018-03-18T00:57:22.776Z,66.41
2018-03-18T00:59:51.266Z,65.97
2018-03-18T01:02:19.688Z,65.88
2018-03-18T01:04:48.999Z,66.51
2018-03-18T01:07:18.493Z,67.16
2018-03-18T01:09:49.422Z,67.14
2018-03-18T01:12:20.718Z,67.30
2018-03-18T01:14:49.230Z,68.00
2018-03-18T01:17:18.449Z,68.39
2018-03-18T01:19:46.866Z,68.72
2018-03-18T01:22:16.338Z,69.30
2018-03-18T01:24:45.629Z,69.89
2018-03-18T01:27:16.562Z,71.66
2018-03-18T01:29:48.662Z,71.91
2018-03-18T01:32:19.984Z,71.99
2018-03-18T01:34:49.258Z,71.64
2018-03-18T01:37:17.874Z,71.13
2018-03-18T01:39:47.543Z,71.66
2018-03-18T01:42:15.931Z,71.57
2018-03-18T01:44:45.996Z,71.21
2018-03-18T01:47:14.660Z,71.86
2018-03-18T01:49:43.001Z,71.55
2018-03-18T01:52:13.146Z,71.30
2018-03-18T01:54:41.496Z,70.49
2018-03-18T01:57:10.848Z,69.92
2018-03-18T01:59:39.776Z,70.34
2018-03-18T02:02:08.133Z,71.07
2018-03-18T02:04:37.994Z,70.58
2018-03-18T02:07:06.404Z,70.54
2018-03-18T02:09:34.841Z,70.33
2018-03-18T02:12:04.285Z,70.63
2018-03-18T02:14:32.679Z,69.98
2018-03-18T02:17:03.519Z,69.86
2018-03-18T02:19:33.472Z,70.32
2018-03-18T02:22:02.186Z,69.85
2018-03-18T02:24:32.198Z,70.05
2018-03-18T02:27:00.606Z,70.16
2018-03-18T02:29:29.500Z,70.01
2018-03-18T02:31:59.590Z,68.28
2018-03-18T02:34:30.638Z,68.23
2018-03-18T02:37:00.674Z,67.60
2018-03-18T02:39:31.427Z,67.27
2018-03-18T02:42:00.557Z,67.44
2018-03-18T02:44:31.051Z,67.75
2018-03-18T02:47:00.551Z,67.78
2018-03-18T02:49:29.737Z,66.79
2018-03-18T02:51:59.099Z,67.32
2018-03-18T02:54:29.446Z,66.71
2018-03-18T02:56:59.238Z,66.41
2018-03-18T02:59:28.061Z,66.70
2018-03-18T03:01:57.737Z,66.71
2018-03-18T03:04:31.040Z,66.79
2018-03-18T03:07:00.059Z,65.93
2018-03-18T03:09:29.885Z,65.88
2018-03-18T03:11:59.199Z,66.39
2018-03-18T03:14:28.450Z,65.78
2018-03-18T03:16:57.657Z,67.11
2018-03-18T03:19:26.969Z,66.83
2018-03-18T03:21:55.646Z,66.85
2018-03-18T03:24:24.311Z,66.63
2018-03-18T03:26:53.663Z,66.54
2018-03-18T03:29:23.315Z,66.24
2018-03-18T03:31:53.007Z,66.80
2018-03-18T03:34:21.334Z,66.63
2018-03-18T03:36:49.712Z,65.93
2018-03-18T03:39:19.111Z,65.84
2018-03-18T03:41:47.587Z,66.73
2018-03-18T03:44:16.934Z,66.98
2018-03-18T03:46:47.378Z,66.55
2018-03-18T03:49:15.883Z,66.83
2018-03-18T03:51:45.000Z,67.68
2018-03-18T03:54:13.915Z,67.72
2018-03-18T03:56:45.481Z,67.79
2018-03-18T03:59:14.397Z,68.22
2018-03-18T04:01:44.156Z,68.15
2018-03-18T04:04:13.703Z,68.18
2018-03-18T04:06:42.663Z,68.99
2018-03-18T04:09:11.693Z,68.40
2018-03-18T04:11:41.037Z,68.67
2018-03-18T04:14:10.330Z,68.49
2018-03-18T04:16:39.500Z,69.17
2018-03-18T04:19:09.960Z,69.73
2018-03-18T04:21:40.641Z,69.18
2018-03-18T04:24:10.172Z,69.03
2018-03-18T04:26:38.956Z,69.52
2018-03-18T04:29:11.072Z,69.95
2018-03-18T04:31:41.141Z,69.75
2018-03-18T04:34:10.419Z,69.83
2018-03-18T04:36:39.581Z,70.36
2018-03-18T04:39:09.718Z,69.97
2018-03-18T04:41:39.735Z,70.25
2018-03-18T04:44:09.216Z,70.88
2018-03-18T04:46:38.540Z,70.37
2018-03-18T04:49:08.414Z,70.35
2018-03-18T04:51:37.338Z,70.29
2018-03-18T04:54:07.051Z,70.65
2018-03-18T04:56:35.458Z,70.70
2018-03-18T04:59:05.508Z,70.95
2018-03-18T05:01:34.772Z,70.77
2018-03-18T05:04:03.903Z,70.78
2018-03-18T05:06:36.942Z,71.66
2018-03-18T05:09:07.963Z,71.72
2018-03-18T05:11:37.974Z,71.06
2018-03-18T05:14:07.200Z,71.39
2018-03-18T05:16:37.895Z,71.60
2018-03-18T05:19:06.485Z,71.64
2018-03-18T05:21:37.171Z,72.13
2018-03-18T05:24:06.467Z,72.43
2018-03-18T05:26:36.305Z,72.42
2018-03-18T05:29:05.836Z,73.02
2018-03-18T05:31:34.220Z,72.62
2018-03-18T05:34:03.619Z,72.09
2018-03-18T05:36:34.492Z,73.20
2018-03-18T05:39:02.859Z,72.64
2018-03-18T05:41:33.250Z,72.94
2018-03-18T05:44:02.576Z,72.59
2018-03-18T05:46:32.574Z,72.76
2018-03-18T05:49:00.986Z,72.76
2018-03-18T05:51:29.471Z,72.55
2018-03-18T05:53:57.851Z,72.04
2018-03-18T05:56:26.842Z,71.92
2018-03-18T05:58:55.971Z,71.97
2018-03-18T06:01:25.614Z,71.83
2018-03-18T06:03:55.287Z,71.17
2018-03-18T06:06:24.525Z,70.77
2018-03-18T06:08:52.957Z,70.83
2018-03-18T06:11:23.181Z,70.57
2018-03-18T06:13:52.886Z,70.70
2018-03-18T06:16:22.667Z,70.39
2018-03-18T06:18:51.670Z,69.10
2018-03-18T06:21:20.043Z,69.42
2018-03-18T06:23:49.551Z,69.80
2018-03-18T06:26:19.275Z,69.98
2018-03-18T06:28:47.772Z,70.41
2018-03-18T06:31:17.581Z,69.84
2018-03-18T06:33:48.194Z,69.25
2018-03-18T06:36:18.835Z,68.75
2018-03-18T06:38:47.215Z,68.85
2018-03-18T06:41:17.023Z,68.47
2018-03-18T06:43:45.817Z,68.62
2018-03-18T06:46:16.748Z,68.96
2018-03-18T06:48:47.201Z,68.37
2018-03-18T06:51:17.412Z,68.38
2018-03-18T06:53:46.685Z,67.89
2018-03-18T06:56:18.346Z,67.91
2018-03-18T06:58:46.719Z,67.82
2018-03-18T07:01:15.863Z,68.61
2018-03-18T07:03:44.510Z,67.82
2018-03-18T07:06:14.389Z,68.58
2018-03-18T07:08:45.433Z,68.51
2018-03-18T07:11:14.731Z,68.51
2018-03-18T07:13:43.842Z,68.56
2018-03-18T07:16:13.000Z,68.30
2018-03-18T07:18:41.735Z,68.07
2018-03-18T07:21:12.831Z,68.62
2018-03-18T07:23:42.624Z,68.32
2018-03-18T07:26:14.329Z,69.04
2018-03-18T07:28:43.748Z,68.77
2018-03-18T07:31:17.241Z,69.27
2018-03-18T07:33:45.658Z,68.68
2018-03-18T07:36:14.959Z,68.52
2018-03-18T07:38:46.653Z,69.53
2018-03-18T07:41:15.874Z,69.75
2018-03-18T07:43:45.219Z,68.96
2018-03-18T07:46:14.308Z,69.28
2018-03-18T07:48:44.081Z,68.96
2018-03-18T07:51:14.292Z,68.60
2018-03-18T07:53:45.267Z,69.10
2018-03-18T07:56:16.975Z,68.58
2018-03-18T07:58:47.099Z,67.31
2018-03-18T08:01:16.499Z,66.76
2018-03-18T08:03:46.757Z,67.20
2018-03-18T08:06:17.295Z,66.79
2018-03-18T08:08:46.218Z,66.46
2018-03-18T08:11:14.836Z,65.03
2018-03-18T08:13:44.003Z,65.33
2018-03-18T08:16:13.254Z,65.11
2018-03-18T08:18:42.782Z,65.12
2018-03-18T08:21:11.348Z,63.42
2018-03-18T08:23:39.680Z,63.89
2018-03-18T08:26:09.736Z,63.20
2018-03-18T08:28:39.895Z,63.68
2018-03-18T08:31:09.758Z,61.12
2018-03-18T08:33:38.148Z,62.40
2018-03-18T08:36:06.840Z,62.53
2018-03-18T08:38:36.719Z,61.85
2018-03-18T08:41:06.407Z,61.80
2018-03-18T08:43:35.668Z,60.70
2018-03-18T08:46:04.705Z,61.01
2018-03-18T08:48:33.946Z,61.17
2018-03-18T08:51:03.112Z,61.46
2018-03-18T08:53:31.927Z,62.39
2018-03-18T08:56:01.102Z,61.09
2018-03-18T08:58:33.480Z,60.66
2018-03-18T09:01:03.426Z,60.31
2018-03-18T09:03:32.969Z,59.63
2018-03-18T09:06:02.952Z,59.72
2018-03-18T09:08:32.392Z,58.94
2018-03-18T09:11:02.372Z,57.89
2018-03-18T09:13:31.565Z,58.36
2018-03-18T09:16:00.821Z,57.64
2018-03-18T09:18:30.158Z,56.30
2018-03-18T09:21:00.735Z,56.57
2018-03-18T09:23:30.079Z,56.86
2018-03-18T09:25:58.492Z,56.18
2018-03-18T09:28:27.325Z,56.19
2018-03-18T09:30:55.757Z,55.24
2018-03-18T09:33:25.150Z,55.29
2018-03-18T09:35:55.234Z,54.62
2018-03-18T09:38:24.580Z,54.55
2018-03-18T09:40:54.164Z,53.94
2018-03-18T09:43:24.373Z,52.77
2018-03-18T09:45:54.054Z,52.81
2018-03-18T09:48:24.848Z,51.28
2018-03-18T09:50:55.597Z,53.13
2018-03-18T09:53:24.458Z,52.36
2018-03-18T09:55:53.982Z,52.27
2018-03-18T09:58:23.535Z,52.92
2018-03-18T10:00:54.205Z,52.53
2018-03-18T10:03:24.199Z,52.34
2018-03-18T10:05:55.857Z,51.14
2018-03-18T10:08:25.589Z,51.07
2018-03-18T10:10:58.741Z,52.19
2018-03-18T10:13:27.745Z,50.53
2018-03-18T10:15:57.656Z,50.59
2018-03-18T10:18:27.148Z,51.33
2018-03-18T10:20:56.866Z,52.15
2018-03-18T10:23:27.898Z,50.63
2018-03-18T10:25:59.060Z,51.66
2018-03-18T10:28:31.199Z,50.54
2018-03-18T10:31:08.909Z,50.93
2018-03-18T10:33:37.999Z,51.16
2018-03-18T10:36:06.704Z,52.27
2018-03-18T10:38:35.034Z,51.55
2018-03-18T10:41:06.531Z,52.44
2018-03-18T10:43:37.928Z,52.58
2018-03-18T10:46:06.746Z,52.68
2018-03-18T10:48:36.488Z,52.27
2018-03-18T10:51:06.296Z,51.84
2018-03-18T10:53:36.413Z,51.54
2018-03-18T10:56:04.844Z,51.94
2018-03-18T10:58:39.749Z,52.24
2018-03-18T11:01:19.314Z,52.46
2018-03-18T11:03:55.137Z,51.87
2018-03-18T11:06:27.695Z,51.27
2018-03-18T11:08:56.838Z,52.51
2018-03-18T11:11:27.332Z,54.06
2018-03-18T11:13:56.712Z,51.06
2018-03-18T11:16:25.372Z,51.92
2018-03-18T11:18:53.752Z,50.89
2018-03-18T11:21:24.512Z,50.98
2018-03-18T11:23:54.636Z,50.60
2018-03-18T11:26:24.773Z,51.44
2018-03-18T11:28:54.059Z,51.17
2018-03-18T11:31:23.087Z,51.16
2018-03-18T11:33:51.451Z,50.88
2018-03-18T11:36:21.717Z,51.01
2018-03-18T11:38:50.380Z,50.81
2018-03-18T11:41:19.193Z,50.37
2018-03-18T11:43:48.682Z,51.04
2018-03-18T11:46:21.728Z,50.79
2018-03-18T11:48:51.319Z,50.50
2018-03-18T11:51:22.578Z,49.54
2018-03-18T11:53:51.681Z,50.63
2018-03-18T11:56:20.564Z,51.11
2018-03-18T11:58:49.726Z,50.77
2018-03-18T12:01:18.316Z,49.67
2018-03-18T12:03:47.116Z,49.03
2018-03-18T12:06:16.714Z,50.38
2018-03-18T12:08:56.928Z,50.47
2018-03-18T12:11:25.908Z,49.83
2018-03-18T12:13:54.502Z,50.50
2018-03-18T12:16:22.903Z,48.84
2018-03-18T12:18:52.205Z,47.96
2018-03-18T12:21:20.631Z,49.33
2018-03-18T12:23:49.112Z,48.50
2018-03-18T12:26:18.082Z,49.08
2018-03-18T12:28:47.341Z,47.66
2018-03-18T12:31:16.926Z,48.16
2018-03-18T12:33:45.258Z,49.13
2018-03-18T12:36:16.279Z,47.76
2018-03-18T12:38:46.327Z,48.81
2018-03-18T12:41:14.707Z,47.19
2018-03-18T12:43:43.583Z,47.75
2018-03-18T12:46:12.153Z,47.87
2018-03-18T12:48:40.484Z,47.11
2018-03-18T12:51:09.765Z,47.50
2018-03-18T12:53:38.714Z,47.86
2018-03-18T12:56:09.855Z,48.30
2018-03-18T12:58:38.801Z,45.77
2018-03-18T13:01:07.635Z,47.20
2018-03-18T13:03:37.708Z,45.76
2018-03-18T13:06:06.572Z,46.12
2018-03-18T13:08:35.866Z,46.38
2018-03-18T13:11:04.252Z,46.92
2018-03-18T13:13:34.348Z,45.70
2018-03-18T13:16:02.712Z,46.97
2018-03-18T13:18:31.407Z,46.33
2018-03-18T13:20:59.887Z,47.92
2018-03-18T13:23:29.138Z,47.46
2018-03-18T13:25:57.490Z,48.07
2018-03-18T13:28:26.673Z,46.88
2018-03-18T13:30:55.348Z,46.68
2018-03-18T13:33:25.178Z,46.97
2018-03-18T13:35:54.480Z,47.28
2018-03-18T13:38:23.135Z,47.44
2018-03-18T13:40:51.500Z,47.15
2018-03-18T13:43:20.009Z,47.40
2018-03-18T13:45:49.157Z,47.54
2018-03-18T13:48:18.298Z,47.51
2018-03-18T13:50:47.379Z,48.38
2018-03-18T13:53:16.320Z,47.19
2018-03-18T13:55:45.477Z,47.53
2018-03-18T13:58:14.421Z,47.38
2018-03-18T14:00:42.845Z,46.02
2018-03-18T14:03:11.257Z,46.76
2018-03-18T14:05:39.640Z,47.26
2018-03-18T14:08:08.058Z,46.68
2018-03-18T14:10:40.233Z,46.29
2018-03-18T14:13:08.872Z,45.87
2018-03-18T14:15:38.988Z,46.14
2018-03-18T14:18:07.513Z,46.97
2018-03-18T14:20:35.841Z,47.60
2018-03-18T14:23:04.190Z,47.44
2018-03-18T14:25:33.454Z,47.29
2018-03-18T14:28:02.481Z,46.82
2018-03-18T14:30:34.807Z,47.40
2018-03-18T14:33:03.627Z,47.29
2018-03-18T14:35:32.716Z,45.87
2018-03-18T14:38:01.051Z,46.89
2018-03-18T14:40:30.337Z,46.17
2018-03-18T14:42:59.699Z,47.73
2018-03-18T14:45:32.106Z,46.67
2018-03-18T14:48:01.095Z,48.31
2018-03-18T14:50:32.351Z,47.98
2018-03-18T14:53:00.678Z,48.22
2018-03-18T14:55:29.104Z,48.14
2018-03-18T14:57:57.542Z,47.83
2018-03-18T15:00:27.101Z,48.88
2018-03-18T15:02:55.437Z,49.02
2018-03-18T15:05:23.802Z,48.50
2018-03-18T15:07:52.147Z,47.97
2018-03-18T15:10:21.966Z,48.38
2018-03-18T15:12:50.290Z,47.35
2018-03-18T15:15:18.663Z,47.79
2018-03-18T15:17:47.634Z,48.18
2018-03-18T15:20:16.083Z,47.93
2018-03-18T15:22:44.435Z,48.31
2018-03-18T15:25:13.327Z,48.37
2018-03-18T15:27:43.966Z,48.66
2018-03-18T15:30:12.290Z,48.68
2018-03-18T15:32:41.542Z,48.14
2018-03-18T15:35:09.876Z,48.06
2018-03-18T15:37:38.280Z,47.70
2018-03-18T15:40:08.520Z,48.92
2018-03-18T15:42:43.976Z,48.33
2018-03-18T15:45:12.330Z,48.92
2018-03-18T15:47:42.192Z,48.51
2018-03-18T15:50:12.191Z,49.23
2018-03-18T15:52:40.549Z,48.45
2018-03-18T15:55:11.589Z,48.01
2018-03-18T15:57:40.247Z,47.97
2018-03-18T16:00:09.220Z,48.20
2018-03-18T16:02:37.846Z,48.12
2018-03-18T16:05:06.663Z,48.32
2018-03-18T16:07:35.070Z,48.22
2018-03-18T16:10:05.253Z,47.37
2018-03-18T16:12:34.999Z,47.70
2018-03-18T16:15:03.386Z,47.16
2018-03-18T16:17:32.602Z,47.32
2018-03-18T16:20:01.071Z,47.01
2018-03-18T16:22:29.772Z,47.34
2018-03-18T16:24:59.493Z,47.96
2018-03-18T16:27:29.103Z,46.79
2018-03-18T16:30:11.509Z,47.70
2018-03-18T16:32:41.702Z,47.53
2018-03-18T16:35:11.216Z,48.34
2018-03-18T16:37:39.614Z,48.21
2018-03-18T16:40:09.039Z,47.38
2018-03-18T16:42:40.229Z,47.93
2018-03-18T16:45:12.058Z,47.80
2018-03-18T16:47:40.476Z,47.65
2018-03-18T16:50:09.681Z,47.84
2018-03-18T16:52:39.055Z,47.66
2018-03-18T16:55:11.291Z,48.00
2018-03-18T16:57:40.385Z,48.22
2018-03-18T17:00:08.719Z,47.32
2018-03-18T17:02:37.530Z,47.80
2018-03-18T17:05:07.066Z,47.80
2018-03-18T17:07:37.004Z,47.76
2018-03-18T17:10:05.390Z,47.63
2018-03-18T17:12:34.659Z,47.59
2018-03-18T17:15:05.156Z,47.79
2018-03-18T17:17:33.487Z,47.47
2018-03-18T17:20:02.068Z,47.42
2018-03-18T17:22:31.500Z,47.22
2018-03-18T17:25:00.771Z,46.82
2018-03-18T17:27:31.639Z,46.88
2018-03-18T17:30:01.523Z,47.06
2018-03-18T17:32:31.143Z,47.81
2018-03-18T17:35:00.312Z,47.55
2018-03-18T17:37:29.070Z,47.63
2018-03-18T17:39:59.003Z,47.65
2018-03-18T17:42:28.675Z,46.89
2018-03-18T17:45:12.171Z,47.31
2018-03-18T17:47:54.371Z,46.99
2018-03-18T17:50:38.144Z,47.17
2018-03-18T17:53:18.138Z,46.89
2018-03-18T17:55:48.857Z,47.41
2018-03-18T17:58:17.397Z,46.69
2018-03-18T18:00:47.224Z,47.10
2018-03-18T18:03:15.888Z,46.87
2018-03-18T18:05:45.551Z,47.29
2018-03-18T18:08:15.615Z,46.64
2018-03-18T18:10:46.333Z,47.21
2018-03-18T18:13:16.326Z,47.82
2018-03-18T18:15:48.560Z,47.09
2018-03-18T18:18:17.808Z,46.53
2018-03-18T18:20:47.592Z,47.49
2018-03-18T18:23:17.098Z,47.91
2018-03-18T18:25:50.592Z,47.88
2018-03-18T18:28:20.986Z,46.56
2018-03-18T18:30:56.764Z,47.66
2018-03-18T18:33:27.150Z,47.48
2018-03-18T18:35:56.405Z,46.71
2018-03-18T18:38:25.016Z,46.86
2018-03-18T18:40:54.498Z,47.24
2018-03-18T18:43:22.880Z,46.94
2018-03-18T18:45:52.481Z,47.19
2018-03-18T18:48:21.876Z,47.10
2018-03-18T18:50:52.046Z,46.94
2018-03-18T18:53:22.670Z,46.96
2018-03-18T18:55:51.792Z,46.90
2018-03-18T18:58:20.159Z,46.92
2018-03-18T19:00:49.388Z,47.00
2018-03-18T19:03:19.684Z,46.10
2018-03-18T19:05:50.073Z,46.39
2018-03-18T19:08:19.544Z,47.08
2018-03-18T19:10:48.833Z,47.15
2018-03-18T19:13:17.622Z,46.42
2018-03-18T19:15:46.886Z,47.54
2018-03-18T19:18:15.971Z,46.49
2018-03-18T19:20:44.308Z,46.83
2018-03-18T19:23:12.972Z,46.17
2018-03-18T19:25:42.162Z,45.97
2018-03-18T19:28:12.453Z,46.61
2018-03-18T19:30:40.786Z,47.38
2018-03-18T19:33:10.013Z,47.46
2018-03-18T19:35:39.355Z,46.16
2018-03-18T19:38:07.761Z,46.53
2018-03-18T19:40:37.135Z,46.70
2018-03-18T19:43:05.918Z,46.66
2018-03-18T19:45:34.307Z,47.02
2018-03-18T19:48:03.745Z,46.84
2018-03-18T19:50:32.152Z,46.16
2018-03-18T19:53:00.531Z,46.74
2018-03-18T19:55:29.189Z,47.06
2018-03-18T19:57:59.199Z,47.52
2018-03-18T20:00:28.851Z,47.72
2018-03-18T20:02:59.634Z,47.02
2018-03-18T20:05:29.211Z,47.46
2018-03-18T20:07:59.662Z,47.33
2018-03-18T20:10:29.644Z,46.99
2018-03-18T20:12:57.997Z,47.71
2018-03-18T20:15:26.681Z,47.73
2018-03-18T20:17:55.795Z,47.89
2018-03-18T20:20:24.197Z,47.76
2018-03-18T20:22:52.531Z,47.75
2018-03-18T20:25:20.900Z,47.98
2018-03-18T20:27:51.327Z,48.29
2018-03-18T20:30:23.116Z,47.41
2018-03-18T20:32:51.442Z,47.60
2018-03-18T20:35:20.797Z,48.22
2018-03-18T20:37:51.355Z,48.34
2018-03-18T20:40:19.792Z,48.18
2018-03-18T20:42:50.374Z,48.23
2018-03-18T20:45:19.569Z,48.08
2018-03-18T20:47:48.784Z,48.48
2018-03-18T20:50:17.111Z,47.72
2018-03-18T20:52:46.287Z,47.99
2018-03-18T20:55:14.618Z,48.57
2018-03-18T20:57:43.035Z,49.06
2018-03-18T21:00:13.771Z,48.30
2018-03-18T21:02:42.152Z,47.99
2018-03-18T21:05:10.506Z,48.58
2018-03-18T21:07:41.039Z,48.43
2018-03-18T21:10:10.176Z,48.86
2018-03-18T21:12:39.254Z,48.74
2018-03-18T21:15:07.587Z,48.52
2018-03-18T21:17:37.824Z,48.61
2018-03-18T21:20:06.172Z,49.58
2018-03-18T21:22:36.251Z,48.97
2018-03-18T21:25:06.887Z,49.58
2018-03-18T21:27:36.599Z,47.94
2018-03-18T21:30:06.633Z,48.51
2018-03-18T21:32:35.272Z,49.00
2018-03-18T21:35:03.612Z,48.86
2018-03-18T21:37:31.979Z,48.76
2018-03-18T21:40:00.381Z,48.39
2018-03-18T21:42:28.732Z,49.70
2018-03-18T21:44:58.137Z,48.85
2018-03-18T21:47:26.611Z,49.33
2018-03-18T21:49:54.957Z,49.72
2018-03-18T21:52:23.320Z,49.62
2018-03-18T21:54:51.653Z,48.86
2018-03-18T21:57:20.450Z,48.84
2018-03-18T21:59:50.482Z,48.95
2018-03-18T22:02:19.734Z,49.16
2018-03-18T22:04:48.550Z,49.11
2018-03-18T22:07:17.829Z,49.49
2018-03-18T22:09:48.831Z,50.20
2018-03-18T22:12:17.169Z,49.65
2018-03-18T22:14:45.574Z,49.66
2018-03-18T22:17:17.364Z,49.66
2018-03-18T22:19:46.336Z,49.74
2018-03-18T22:22:14.933Z,50.16
2018-03-18T22:24:44.985Z,50.09
2018-03-18T22:27:13.438Z,49.90
2018-03-18T22:29:41.808Z,50.48
2018-03-18T22:32:10.163Z,49.54
2018-03-18T22:34:39.725Z,50.69
2018-03-18T22:37:08.118Z,50.51
2018-03-18T22:39:37.255Z,50.57
2018-03-18T22:42:05.802Z,49.44
2018-03-18T22:44:34.996Z,50.11
2018-03-18T22:47:03.362Z,50.03
2018-03-18T22:49:32.480Z,49.97
2018-03-18T22:52:01.848Z,50.15
2018-03-18T22:54:30.253Z,50.06
2018-03-18T22:56:59.336Z,49.68
2018-03-18T22:59:31.186Z,49.62
2018-03-18T23:02:00.339Z,50.44
2018-03-18T23:04:28.707Z,49.96
2018-03-18T23:06:59.975Z,50.44
2018-03-18T23:09:28.535Z,50.65
2018-03-18T23:11:56.946Z,50.06
2018-03-18T23:14:27.750Z,50.90
2018-03-18T23:16:56.404Z,50.94
2018-03-18T23:19:25.049Z,51.08
2018-03-18T23:21:53.424Z,50.61
2018-03-18T23:24:21.759Z,50.59
2018-03-18T23:26:51.077Z,50.54
2018-03-18T23:29:19.716Z,50.10
2018-03-18T23:31:50.620Z,49.99
2018-03-18T23:34:19.479Z,51.00
2018-03-18T23:36:48.311Z,50.97
2018-03-18T23:39:17.395Z,51.14
2018-03-18T23:41:46.745Z,50.83
2018-03-18T23:44:15.083Z,50.67
2018-03-18T23:46:43.877Z,51.14
2018-03-18T23:49:14.976Z,50.82
2018-03-18T23:51:46.665Z,50.10
2018-03-18T23:54:17.481Z,51.20
2018-03-18T23:56:47.558Z,50.57
2018-03-18T23:59:17.231Z,51.01
